Time;durP1;ratioP1;P1;durP2;ratioP2;P2;SDS_P1;SDS_P2;PMS_P1;PMS_P2;Temp;Humidity;BMP_temperature;BMP_pressure;BME280_temperature;BME280_humidity;BME280_pressure;Samples;Min_cycle;Max_cycle;Signal;HPM_P1;HPM_P2
2021/09/12 00:00:41;;;;;;;16.05;8.80;;;17.40;99.90;;;;;;5049845;28;20116;-73
2021/09/12 00:03:08;;;;;;;15.35;9.32;;;17.40;99.90;;;;;;5048782;28;20491;-73
2021/09/12 00:05:34;;;;;;;13.98;8.90;;;17.40;99.90;;;;;;5048272;28;20395;-73
2021/09/12 00:07:59;;;;;;;17.13;8.65;;;17.40;99.90;;;;;;5049062;28;20028;-73
2021/09/12 00:10:26;;;;;;;14.20;8.63;;;17.50;99.90;;;;;;5048466;28;20025;-73
2021/09/12 00:12:52;;;;;;;15.68;9.80;;;17.50;99.90;;;;;;5049046;28;20107;-73
2021/09/12 00:15:17;;;;;;;15.57;9.32;;;17.40;99.90;;;;;;5041275;28;20057;-74
2021/09/12 00:17:43;;;;;;;13.90;8.55;;;17.40;99.90;;;;;;5043064;28;20420;-74
2021/09/12 00:20:09;;;;;;;15.23;8.70;;;17.40;99.90;;;;;;5049748;28;20033;-74
2021/09/12 00:22:35;;;;;;;18.65;10.00;;;17.40;99.90;;;;;;5045865;28;20063;-74
2021/09/12 00:25:01;;;;;;;14.95;9.45;;;17.30;99.90;;;;;;5047996;28;20056;-75
2021/09/12 00:27:26;;;;;;;15.60;8.60;;;17.30;99.90;;;;;;5042235;28;20108;-74
2021/09/12 00:30:15;;;;;;;12.35;7.90;;;17.30;99.90;;;;;;5048943;28;20535;-74
2021/09/12 00:32:41;;;;;;;12.30;8.38;;;17.30;99.90;;;;;;5049178;28;20033;-75
2021/09/12 00:35:07;;;;;;;17.25;8.68;;;17.20;99.90;;;;;;5048576;28;20496;-74
2021/09/12 00:37:32;;;;;;;12.23;7.70;;;17.20;99.90;;;;;;5048500;28;20029;-74
2021/09/12 00:39:58;;;;;;;15.48;9.10;;;17.10;99.90;;;;;;5042975;28;20066;-74
2021/09/12 00:42:24;;;;;;;12.80;8.35;;;17.10;99.90;;;;;;5040493;28;20438;-74
2021/09/12 00:44:49;;;;;;;13.50;8.50;;;17.10;99.90;;;;;;5046238;28;20033;-74
2021/09/12 00:47:15;;;;;;;15.18;8.70;;;17.10;99.90;;;;;;5046874;28;20467;-74
2021/09/12 00:49:41;;;;;;;14.13;7.75;;;17.10;99.90;;;;;;5052427;28;20032;-74
2021/09/12 00:52:09;;;;;;;15.90;9.20;;;17.00;99.90;;;;;;5041562;28;20041;-74
2021/09/12 00:54:35;;;;;;;16.75;8.73;;;17.00;99.90;;;;;;5047740;28;20024;-74
2021/09/12 00:57:04;;;;;;;12.00;8.02;;;17.00;99.90;;;;;;5047070;28;20506;-74
2021/09/12 00:59:31;;;;;;;13.68;8.07;;;17.00;99.90;;;;;;5046901;28;20037;-74
2021/09/12 01:01:58;;;;;;;16.23;9.10;;;16.90;99.90;;;;;;5046721;28;20025;-74
2021/09/12 01:04:23;;;;;;;12.00;8.27;;;16.90;99.90;;;;;;5038754;28;20025;-74
2021/09/12 01:06:49;;;;;;;15.32;9.32;;;16.80;99.90;;;;;;5052038;28;20066;-74
2021/09/12 01:09:15;;;;;;;18.95;9.63;;;16.80;99.90;;;;;;5047894;28;20456;-73
2021/09/12 01:11:41;;;;;;;15.90;9.20;;;16.80;99.90;;;;;;5048338;28;20036;-74
2021/09/12 01:14:06;;;;;;;16.13;8.60;;;16.70;99.90;;;;;;5043894;28;20025;-74
2021/09/12 01:16:31;;;;;;;14.88;8.52;;;16.70;99.90;;;;;;5047188;28;20118;-74
2021/09/12 01:18:57;;;;;;;17.40;9.27;;;16.70;99.90;;;;;;5047759;28;20051;-74
2021/09/12 01:21:24;;;;;;;16.25;9.02;;;16.70;99.90;;;;;;5047738;28;20506;-74
2021/09/12 01:23:51;;;;;;;13.13;8.15;;;16.60;99.90;;;;;;5043598;28;20176;-74
2021/09/12 01:26:21;;;;;;;13.75;7.85;;;16.60;99.90;;;;;;5047906;28;20028;-73
2021/09/12 01:28:47;;;;;;;15.47;8.20;;;16.60;99.90;;;;;;5047293;28;20384;-73
2021/09/12 01:31:24;;;;;;;14.25;8.40;;;16.60;99.90;;;;;;5042212;28;20025;-73
2021/09/12 01:33:50;;;;;;;16.92;8.55;;;16.60;99.90;;;;;;5043760;28;20108;-74
2021/09/12 01:36:16;;;;;;;17.08;9.20;;;16.50;99.90;;;;;;5035396;28;20104;-74
2021/09/12 01:38:42;;;;;;;13.95;8.82;;;16.50;99.90;;;;;;5040193;28;20039;-73
2021/09/12 01:41:08;;;;;;;12.57;8.40;;;16.50;99.90;;;;;;5048015;28;20112;-74
2021/09/12 01:43:33;;;;;;;14.02;8.50;;;16.40;99.90;;;;;;5048089;28;20128;-73
2021/09/12 01:45:59;;;;;;;13.32;8.60;;;16.40;99.90;;;;;;5047910;28;20037;-74
2021/09/12 01:48:24;;;;;;;12.73;8.02;;;16.40;99.90;;;;;;5048780;28;20033;-74
2021/09/12 01:50:50;;;;;;;13.93;8.30;;;16.40;99.90;;;;;;5050063;28;20021;-73
2021/09/12 01:53:16;;;;;;;14.02;8.05;;;16.40;99.90;;;;;;5053014;28;20031;-73
2021/09/12 01:55:41;;;;;;;12.65;7.93;;;16.30;99.90;;;;;;5050066;28;20033;-74
2021/09/12 01:58:07;;;;;;;14.80;8.70;;;16.30;99.90;;;;;;5052793;28;20033;-74
2021/09/12 02:00:32;;;;;;;14.82;8.77;;;16.30;99.90;;;;;;5051293;28;20060;-74
2021/09/12 02:02:58;;;;;;;11.32;7.70;;;16.30;99.90;;;;;;5052193;28;20075;-74
2021/09/12 02:05:25;;;;;;;17.05;8.63;;;16.30;99.90;;;;;;5047075;28;20017;-73
2021/09/12 02:07:50;;;;;;;13.45;8.15;;;16.20;99.90;;;;;;5047995;28;20510;-74
2021/09/12 02:10:16;;;;;;;14.88;8.77;;;16.20;99.90;;;;;;5048495;28;20029;-74
2021/09/12 02:12:41;;;;;;;14.07;9.23;;;16.20;99.90;;;;;;5050376;28;20410;-74
2021/09/12 02:15:07;;;;;;;13.95;7.80;;;16.20;99.90;;;;;;5056985;28;20553;-74
2021/09/12 02:17:33;;;;;;;15.80;8.95;;;16.10;99.90;;;;;;5050279;28;20025;-73
2021/09/12 02:19:59;;;;;;;13.32;7.93;;;16.20;99.90;;;;;;5046387;28;20557;-73
2021/09/12 02:22:25;;;;;;;11.77;7.90;;;16.10;99.90;;;;;;5036632;28;20100;-74
2021/09/12 02:24:50;;;;;;;12.13;8.45;;;16.10;99.90;;;;;;5049116;28;20108;-74
2021/09/12 02:27:16;;;;;;;14.57;7.95;;;16.10;99.90;;;;;;5051367;28;20025;-73
2021/09/12 02:29:41;;;;;;;15.80;8.57;;;16.10;99.90;;;;;;5049832;28;20025;-73
2021/09/12 02:32:07;;;;;;;18.05;8.65;;;16.00;99.90;;;;;;5052815;28;20029;-73
2021/09/12 02:34:32;;;;;;;15.27;9.10;;;16.00;99.90;;;;;;5050872;28;20044;-73
2021/09/12 02:36:58;;;;;;;13.95;8.65;;;16.00;99.90;;;;;;5050993;28;20108;-74
2021/09/12 02:39:23;;;;;;;13.25;8.20;;;16.00;99.90;;;;;;5042094;28;20028;-74
2021/09/12 02:41:49;;;;;;;12.27;8.50;;;15.90;99.90;;;;;;5040647;28;20061;-74
2021/09/12 02:44:14;;;;;;;14.52;8.52;;;15.90;99.90;;;;;;5044185;28;20025;-74
2021/09/12 02:46:40;;;;;;;12.35;8.23;;;15.90;99.90;;;;;;5050536;28;20056;-73
2021/09/12 02:49:05;;;;;;;15.93;9.10;;;15.90;99.90;;;;;;5060446;28;20439;-74
2021/09/12 02:51:30;;;;;;;14.55;8.77;;;15.90;99.90;;;;;;5051423;28;20037;-74
2021/09/12 02:53:56;;;;;;;14.65;9.32;;;15.90;99.90;;;;;;5050503;28;20025;-73
2021/09/12 02:56:21;;;;;;;15.32;9.38;;;15.90;99.90;;;;;;5048987;28;20502;-74
2021/09/12 02:58:47;;;;;;;18.17;10.20;;;15.90;99.90;;;;;;5049971;28;20023;-74
2021/09/12 03:01:12;;;;;;;14.93;8.98;;;15.90;99.90;;;;;;5050503;28;20055;-74
2021/09/12 03:03:38;;;;;;;14.40;8.57;;;15.90;99.90;;;;;;5049168;28;20025;-73
2021/09/12 03:06:03;;;;;;;13.85;8.63;;;15.90;99.90;;;;;;5050687;28;20048;-74
2021/09/12 03:08:29;;;;;;;11.95;8.27;;;15.90;99.90;;;;;;5050031;28;20032;-73
2021/09/12 03:10:54;;;;;;;14.82;9.25;;;15.80;99.90;;;;;;5050201;28;20017;-74
2021/09/12 03:13:20;;;;;;;15.20;9.00;;;15.80;99.90;;;;;;5050260;28;20071;-74
2021/09/12 03:15:45;;;;;;;14.05;8.30;;;15.80;99.90;;;;;;5048876;28;20033;-74
2021/09/12 03:18:11;;;;;;;16.27;8.43;;;15.80;99.90;;;;;;5050715;28;20530;-74
2021/09/12 03:20:37;;;;;;;13.13;8.82;;;15.70;99.90;;;;;;5050784;28;20433;-73
2021/09/12 03:23:03;;;;;;;16.90;8.80;;;15.70;99.90;;;;;;5057403;28;20032;-74
2021/09/12 03:25:29;;;;;;;14.05;7.82;;;15.70;99.90;;;;;;5051055;28;20558;-73
2021/09/12 03:27:55;;;;;;;15.38;9.20;;;15.60;99.90;;;;;;5047553;28;20052;-74
2021/09/12 03:30:21;;;;;;;16.10;9.18;;;15.70;99.90;;;;;;5050360;28;20029;-73
2021/09/12 03:32:47;;;;;;;14.98;8.63;;;15.70;99.90;;;;;;5051069;28;20365;-74
2021/09/12 03:35:12;;;;;;;19.08;9.40;;;15.60;99.90;;;;;;5049669;28;20040;-74
2021/09/12 03:37:38;;;;;;;14.43;9.40;;;15.60;99.90;;;;;;5049765;28;20094;-74
2021/09/12 03:40:04;;;;;;;18.83;9.48;;;15.60;99.90;;;;;;5051691;28;20074;-74
2021/09/12 03:42:29;;;;;;;17.92;9.80;;;15.60;99.90;;;;;;5050572;28;20111;-73
2021/09/12 03:44:55;;;;;;;19.90;11.82;;;15.60;99.90;;;;;;5049927;28;20427;-74
2021/09/12 03:47:20;;;;;;;13.90;9.88;;;15.70;99.90;;;;;;5046838;28;20036;-73
2021/09/12 03:49:46;;;;;;;17.27;10.82;;;15.70;99.90;;;;;;5049980;28;20021;-74
2021/09/12 03:52:12;;;;;;;20.63;10.70;;;15.70;99.90;;;;;;5050081;28;20125;-73
2021/09/12 03:54:38;;;;;;;15.95;10.63;;;15.70;99.90;;;;;;5046169;28;20472;-74
2021/09/12 03:57:04;;;;;;;20.27;11.80;;;15.70;99.90;;;;;;5050244;28;20017;-73
2021/09/12 03:59:29;;;;;;;21.65;11.30;;;15.70;99.90;;;;;;5049375;28;20029;-74
2021/09/12 04:01:55;;;;;;;17.27;10.77;;;15.80;99.90;;;;;;5050382;28;20024;-73
2021/09/12 04:04:20;;;;;;;17.33;10.98;;;15.80;99.90;;;;;;5050278;28;20458;-74
2021/09/12 04:06:45;;;;;;;23.52;11.07;;;15.70;99.90;;;;;;5047252;28;20056;-73
2021/09/12 04:09:11;;;;;;;16.75;10.90;;;15.70;99.90;;;;;;5042079;28;20033;-74
2021/09/12 04:11:36;;;;;;;15.98;10.20;;;15.70;99.90;;;;;;5048759;28;20143;-74
2021/09/12 04:14:02;;;;;;;19.15;10.95;;;15.70;99.90;;;;;;5049355;28;20017;-74
2021/09/12 04:16:28;;;;;;;17.08;10.43;;;15.70;99.90;;;;;;5046943;28;20128;-74
2021/09/12 04:18:53;;;;;;;25.85;11.00;;;15.70;99.90;;;;;;5048035;28;20108;-73
2021/09/12 04:21:19;;;;;;;16.05;11.07;;;15.70;99.90;;;;;;5047606;28;20039;-73
2021/09/12 04:23:44;;;;;;;18.80;10.00;;;15.60;99.90;;;;;;5049606;28;20078;-74
2021/09/12 04:26:10;;;;;;;17.25;11.45;;;15.60;99.90;;;;;;5049865;28;20483;-74
2021/09/12 04:28:35;;;;;;;16.08;10.25;;;15.70;99.90;;;;;;5047878;28;20612;-73
2021/09/12 04:31:01;;;;;;;15.20;10.02;;;15.60;99.90;;;;;;5051349;28;20028;-74
2021/09/12 04:33:27;;;;;;;23.42;11.27;;;15.60;99.90;;;;;;5045654;28;20067;-74
2021/09/12 04:35:52;;;;;;;19.15;10.35;;;15.60;99.90;;;;;;5047109;28;20083;-74
2021/09/12 04:38:18;;;;;;;17.23;10.75;;;15.60;99.90;;;;;;5046210;28;20111;-73
2021/09/12 04:40:43;;;;;;;16.98;10.60;;;15.50;99.90;;;;;;5042494;28;20252;-73
2021/09/12 04:43:09;;;;;;;13.68;9.60;;;15.50;99.90;;;;;;5040275;28;20120;-74
2021/09/12 04:45:34;;;;;;;17.42;9.57;;;15.50;99.90;;;;;;5047445;28;20055;-74
2021/09/12 04:48:00;;;;;;;13.65;9.02;;;15.50;99.90;;;;;;5048304;28;20078;-74
2021/09/12 04:50:25;;;;;;;15.90;10.02;;;15.40;99.90;;;;;;5044583;28;20060;-74
2021/09/12 04:52:51;;;;;;;18.52;10.70;;;15.40;99.90;;;;;;5046447;28;20037;-74
2021/09/12 04:55:16;;;;;;;18.60;10.80;;;15.50;99.90;;;;;;5047479;28;20033;-74
2021/09/12 04:57:44;;;;;;;20.10;11.13;;;15.50;99.90;;;;;;5046954;28;20037;-75
2021/09/12 05:00:10;;;;;;;20.38;11.43;;;15.60;99.90;;;;;;5048465;28;20047;-74
2021/09/12 05:02:35;;;;;;;23.90;11.23;;;15.60;99.90;;;;;;5044341;28;20436;-74
2021/09/12 05:05:01;;;;;;;21.15;11.23;;;15.70;99.90;;;;;;5043280;28;20135;-74
2021/09/12 05:07:26;;;;;;;22.23;11.50;;;15.70;99.90;;;;;;5047265;28;20047;-75
2021/09/12 05:09:52;;;;;;;23.13;10.70;;;15.80;99.90;;;;;;5046008;28;20061;-74
2021/09/12 05:12:17;;;;;;;17.75;11.27;;;15.80;99.90;;;;;;5049473;28;20021;-74
2021/09/12 05:14:43;;;;;;;19.95;11.40;;;15.80;99.90;;;;;;5048033;28;20104;-74
2021/09/12 05:17:08;;;;;;;17.35;11.15;;;15.80;99.90;;;;;;5047761;28;20040;-74
2021/09/12 05:19:34;;;;;;;15.55;10.13;;;15.90;99.90;;;;;;5047204;28;20033;-74
2021/09/12 05:21:59;;;;;;;20.15;11.48;;;15.90;99.90;;;;;;5048388;28;20399;-74
2021/09/12 05:24:25;;;;;;;18.83;11.95;;;15.90;99.90;;;;;;5048074;28;20554;-75
2021/09/12 05:26:50;;;;;;;17.63;10.75;;;15.90;99.90;;;;;;5042889;28;20562;-74
2021/09/12 05:29:18;;;;;;;18.90;11.07;;;15.90;99.90;;;;;;5044931;28;20032;-74
2021/09/12 05:31:43;;;;;;;19.23;10.80;;;15.90;99.90;;;;;;5042341;28;20157;-74
2021/09/12 05:34:09;;;;;;;19.88;10.93;;;16.00;99.90;;;;;;5048272;28;20495;-74
2021/09/12 05:36:34;;;;;;;19.95;11.07;;;16.00;99.90;;;;;;5047874;28;20072;-74
2021/09/12 05:38:59;;;;;;;18.63;10.93;;;16.00;99.90;;;;;;5046636;28;20029;-74
2021/09/12 05:41:25;;;;;;;16.45;10.05;;;16.10;99.90;;;;;;5047056;28;20048;-74
2021/09/12 05:43:50;;;;;;;16.35;10.85;;;16.10;99.90;;;;;;5047812;28;20037;-75
2021/09/12 05:46:16;;;;;;;15.77;10.10;;;16.10;99.90;;;;;;5048645;28;20040;-74
2021/09/12 05:48:41;;;;;;;18.33;10.77;;;16.20;99.90;;;;;;5047172;28;20023;-74
2021/09/12 05:51:07;;;;;;;18.38;10.77;;;16.20;99.90;;;;;;5047023;28;20060;-74
2021/09/12 05:53:32;;;;;;;17.42;10.35;;;16.20;99.90;;;;;;5046835;28;20115;-75
2021/09/12 05:55:58;;;;;;;16.85;10.15;;;16.30;99.90;;;;;;5049117;28;20020;-75
2021/09/12 05:58:24;;;;;;;17.73;10.85;;;16.30;99.90;;;;;;5042059;28;20033;-74
2021/09/12 06:00:49;;;;;;;16.65;10.52;;;16.30;99.90;;;;;;5044290;28;20067;-74
2021/09/12 06:03:15;;;;;;;17.98;10.80;;;16.40;99.90;;;;;;5038751;28;20081;-74
2021/09/12 06:05:40;;;;;;;22.17;10.02;;;16.40;99.90;;;;;;5047824;28;20025;-74
2021/09/12 06:08:06;;;;;;;16.20;9.60;;;16.40;99.90;;;;;;5046522;28;20021;-74
2021/09/12 06:10:32;;;;;;;15.35;9.27;;;16.40;99.90;;;;;;5044563;28;20025;-74
2021/09/12 06:12:57;;;;;;;15.95;10.43;;;16.50;99.90;;;;;;5045815;28;20107;-75
2021/09/12 06:15:23;;;;;;;18.17;9.90;;;16.50;99.90;;;;;;5044349;28;20032;-75
2021/09/12 06:17:51;;;;;;;18.38;9.88;;;16.60;99.90;;;;;;5044563;28;20035;-74
2021/09/12 06:20:16;;;;;;;14.90;9.45;;;16.70;99.90;;;;;;5046283;28;20044;-75
2021/09/12 06:22:47;;;;;;;15.40;9.90;;;16.80;99.90;;;;;;5046380;28;20029;-75
2021/09/12 06:25:13;;;;;;;18.30;9.90;;;16.80;99.90;;;;;;5039194;28;20021;-75
2021/09/12 06:27:39;;;;;;;15.35;9.52;;;16.90;99.90;;;;;;5044132;28;20021;-75
2021/09/12 06:30:07;;;;;;;14.77;9.25;;;17.00;99.90;;;;;;5041378;28;20083;-74
2021/09/12 06:32:33;;;;;;;16.92;8.80;;;17.00;99.90;;;;;;5045443;28;20027;-75
2021/09/12 06:34:58;;;;;;;18.45;9.48;;;17.00;99.90;;;;;;5047395;28;20025;-74
2021/09/12 06:37:24;;;;;;;14.90;9.70;;;17.10;99.90;;;;;;5048332;28;20137;-74
2021/09/12 06:39:49;;;;;;;16.77;9.82;;;17.10;99.90;;;;;;5049880;28;20033;-75
2021/09/12 06:42:15;;;;;;;19.38;9.15;;;17.10;99.90;;;;;;5050956;28;20023;-74
2021/09/12 06:44:40;;;;;;;15.73;9.43;;;17.10;99.90;;;;;;5049609;28;20519;-75
2021/09/12 06:47:06;;;;;;;20.65;9.80;;;17.20;99.90;;;;;;5049694;28;20108;-75
2021/09/12 06:49:31;;;;;;;16.17;10.18;;;17.20;99.90;;;;;;5050139;28;20453;-75
2021/09/12 06:51:57;;;;;;;13.45;9.35;;;17.20;99.90;;;;;;5043862;28;20123;-75
2021/09/12 06:54:22;;;;;;;17.25;9.65;;;17.30;99.90;;;;;;5050025;28;20029;-75
2021/09/12 06:56:48;;;;;;;12.85;9.10;;;17.30;99.90;;;;;;5046063;28;20356;-75
2021/09/12 06:59:13;;;;;;;15.70;9.38;;;17.30;99.90;;;;;;5045313;28;20045;-74
2021/09/12 07:01:39;;;;;;;16.40;9.68;;;17.30;99.90;;;;;;5042116;28;20407;-75
2021/09/12 07:04:04;;;;;;;15.95;9.25;;;17.30;99.90;;;;;;5050157;28;20028;-74
2021/09/12 07:06:30;;;;;;;16.27;8.80;;;17.30;99.90;;;;;;5046866;28;20037;-74
2021/09/12 07:08:55;;;;;;;15.40;8.85;;;17.40;99.90;;;;;;5048072;28;20025;-71
2021/09/12 07:11:21;;;;;;;16.95;10.07;;;17.40;99.90;;;;;;5046576;28;20024;-71
2021/09/12 07:13:46;;;;;;;16.60;9.18;;;17.50;99.90;;;;;;5050047;28;20028;-71
2021/09/12 07:16:12;;;;;;;16.20;9.95;;;17.50;99.90;;;;;;5047833;28;20036;-71
2021/09/12 07:18:37;;;;;;;18.45;9.32;;;17.60;99.90;;;;;;5043233;28;20051;-71
2021/09/12 07:21:03;;;;;;;13.60;8.35;;;17.70;99.90;;;;;;5057542;28;20037;-70
2021/09/12 07:23:29;;;;;;;14.98;8.25;;;17.70;99.90;;;;;;5049268;28;20037;-70
2021/09/12 07:25:55;;;;;;;14.35;8.40;;;17.80;99.90;;;;;;5045386;28;20395;-70
2021/09/12 07:28:21;;;;;;;14.93;8.75;;;17.80;99.90;;;;;;5047709;28;20025;-70
2021/09/12 07:30:46;;;;;;;14.82;8.50;;;17.90;99.90;;;;;;5042998;28;20490;-70
2021/09/12 07:33:12;;;;;;;14.52;8.85;;;18.00;99.90;;;;;;5049413;28;20103;-71
2021/09/12 07:35:37;;;;;;;15.90;9.07;;;18.00;99.90;;;;;;5038639;28;20037;-70
2021/09/12 07:38:03;;;;;;;15.65;8.68;;;18.10;99.90;;;;;;5041996;28;20040;-69
2021/09/12 07:40:29;;;;;;;13.50;8.45;;;18.20;99.90;;;;;;5040396;28;20501;-68
2021/09/12 07:42:54;;;;;;;12.32;8.02;;;18.30;99.90;;;;;;5049145;28;20025;-71
2021/09/12 07:45:20;;;;;;;15.10;9.00;;;18.30;99.90;;;;;;5048840;28;20032;-76
2021/09/12 07:47:45;;;;;;;12.82;8.35;;;18.30;99.90;;;;;;5049690;28;20027;-74
2021/09/12 07:50:12;;;;;;;15.00;9.18;;;18.30;99.90;;;;;;5044208;28;20026;-70
2021/09/12 07:52:42;;;;;;;15.75;7.72;;;18.30;99.90;;;;;;5037335;28;20079;-69
2021/09/12 07:55:08;;;;;;;15.18;8.98;;;18.30;99.90;;;;;;5046774;28;20021;-69
2021/09/12 07:57:33;;;;;;;14.38;8.07;;;18.30;99.90;;;;;;5037842;28;20120;-69
2021/09/12 07:59:59;;;;;;;12.80;8.05;;;18.30;99.90;;;;;;5039511;28;20125;-70
2021/09/12 08:02:24;;;;;;;13.77;8.52;;;18.30;99.90;;;;;;5044622;28;20044;-77
2021/09/12 08:04:50;;;;;;;13.65;8.60;;;18.30;99.90;;;;;;5048026;28;20029;-71
2021/09/12 08:07:15;;;;;;;15.13;8.70;;;18.30;99.90;;;;;;5045282;28;20029;-70
2021/09/12 08:09:41;;;;;;;14.38;9.00;;;18.40;99.90;;;;;;5042698;28;20029;-71
2021/09/12 08:12:06;;;;;;;14.23;8.77;;;18.40;99.90;;;;;;5049488;28;20104;-72
2021/09/12 08:14:32;;;;;;;13.52;8.60;;;18.40;99.90;;;;;;5048590;28;20120;-70
2021/09/12 08:16:57;;;;;;;12.45;8.35;;;18.40;99.90;;;;;;5047177;28;20197;-72
2021/09/12 08:19:41;;;;;;;17.98;9.50;;;18.40;99.90;;;;;;5040928;28;20483;-72
2021/09/12 08:22:06;;;;;;;13.95;8.48;;;18.30;99.90;;;;;;5049748;28;20033;-72
2021/09/12 08:24:32;;;;;;;15.13;9.18;;;18.30;99.90;;;;;;5040593;28;20020;-73
2021/09/12 08:26:57;;;;;;;15.15;9.25;;;18.30;99.90;;;;;;5045148;28;20488;-73
2021/09/12 08:29:44;;;;;;;13.88;8.57;;;18.30;99.90;;;;;;5047385;28;20519;-72
2021/09/12 08:32:10;;;;;;;18.25;8.77;;;18.30;99.90;;;;;;5042113;28;20869;-72
2021/09/12 08:34:36;;;;;;;18.42;9.15;;;18.40;99.90;;;;;;5049266;28;20048;-72
2021/09/12 08:37:02;;;;;;;12.60;8.52;;;18.40;99.90;;;;;;5046736;28;20060;-72
2021/09/12 08:39:28;;;;;;;11.90;7.85;;;18.50;99.90;;;;;;5042087;28;20053;-72
2021/09/12 08:41:53;;;;;;;14.68;9.18;;;18.60;99.90;;;;;;5045819;28;20473;-72
2021/09/12 08:44:20;;;;;;;18.98;8.57;;;18.60;99.90;;;;;;5047412;28;20025;-71
2021/09/12 08:46:46;;;;;;;11.57;7.90;;;18.70;99.90;;;;;;5046442;28;20115;-72
2021/09/12 08:49:30;;;;;;;11.52;7.57;;;18.70;99.90;;;;;;5040437;28;20055;-72
2021/09/12 08:54:59;;;;;;;11.40;7.93;;;18.80;99.90;;;;;;5042097;28;20069;-73
2021/09/12 08:57:25;;;;;;;15.07;9.35;;;18.80;99.90;;;;;;5044464;28;20021;-73
2021/09/12 08:59:51;;;;;;;12.45;8.60;;;18.80;99.90;;;;;;5046450;28;20437;-73
2021/09/12 09:02:25;;;;;;;14.20;8.63;;;18.90;99.90;;;;;;5045805;28;20037;-72
2021/09/12 09:05:03;;;;;;;15.15;8.23;;;19.00;99.90;;;;;;5045129;28;20395;-73
2021/09/12 09:07:30;;;;;;;14.65;8.15;;;19.10;99.90;;;;;;5040884;28;20089;-72
2021/09/12 09:09:57;;;;;;;15.98;8.95;;;19.30;99.90;;;;;;5044716;28;20021;-72
2021/09/12 09:12:37;;;;;;;15.35;8.45;;;19.40;99.90;;;;;;5047598;28;20056;-73
2021/09/12 09:15:11;;;;;;;13.25;7.75;;;19.60;99.90;;;;;;5043161;28;20096;-72
2021/09/12 09:17:44;;;;;;;14.05;8.55;;;19.80;99.90;;;;;;5044281;28;20125;-73
2021/09/12 09:20:14;;;;;;;18.50;8.27;;;19.90;99.90;;;;;;5045926;28;21356;-74
2021/09/12 09:22:42;;;;;;;15.32;8.90;;;19.80;99.90;;;;;;5045738;28;20491;-72
2021/09/12 09:25:23;;;;;;;12.73;7.57;;;19.80;99.90;;;;;;5043181;28;20037;-74
2021/09/12 09:28:02;;;;;;;13.95;8.23;;;19.70;99.90;;;;;;5037926;28;20104;-69
2021/09/12 09:30:47;;;;;;;13.20;8.25;;;19.70;99.90;;;;;;5036088;28;20037;-72
2021/09/12 09:33:27;;;;;;;14.18;7.65;;;19.70;99.90;;;;;;5039597;28;20060;-73
2021/09/12 09:36:01;;;;;;;16.07;8.33;;;19.70;99.90;;;;;;5031712;28;20033;-73
2021/09/12 09:38:31;;;;;;;16.38;8.43;;;19.90;99.90;;;;;;5034678;28;20483;-73
2021/09/12 09:40:57;;;;;;;13.75;8.52;;;20.00;99.90;;;;;;5035113;28;20030;-72
2021/09/12 09:43:23;;;;;;;12.30;7.75;;;20.10;99.90;;;;;;5035197;28;20043;-73
2021/09/12 09:45:48;;;;;;;14.65;7.95;;;20.20;99.90;;;;;;5036179;28;20060;-73
2021/09/12 09:48:14;;;;;;;12.75;7.95;;;20.20;99.90;;;;;;5037001;28;20032;-73
2021/09/12 09:50:42;;;;;;;11.00;7.45;;;20.30;99.90;;;;;;5035370;28;20028;-71
2021/09/12 09:53:14;;;;;;;13.10;8.32;;;20.40;99.90;;;;;;5038837;28;20138;-71
2021/09/12 09:55:40;;;;;;;12.10;7.20;;;20.50;99.90;;;;;;5037856;28;20033;-73
2021/09/12 09:58:09;;;;;;;11.98;7.65;;;20.50;99.90;;;;;;5036048;28;20637;-73
2021/09/12 10:00:35;;;;;;;12.13;8.15;;;20.60;99.90;;;;;;5036269;28;20052;-73
2021/09/12 10:03:01;;;;;;;10.27;7.43;;;20.70;99.90;;;;;;5036102;28;20124;-72
2021/09/12 10:05:27;;;;;;;16.35;7.70;;;20.80;99.90;;;;;;5036739;28;20542;-73
2021/09/12 10:07:54;;;;;;;14.23;7.95;;;20.90;99.90;;;;;;5032569;28;20120;-73
2021/09/12 10:10:21;;;;;;;10.55;7.38;;;21.00;99.90;;;;;;5037260;28;20079;-75
2021/09/12 10:12:56;;;;;;;12.32;7.40;;;20.90;99.90;;;;;;5039829;28;20037;-73
2021/09/12 10:15:27;;;;;;;14.38;7.18;;;21.00;99.90;;;;;;5040127;28;20048;-73
2021/09/12 10:17:53;;;;;;;13.68;7.85;;;21.00;99.90;;;;;;5036890;28;20382;-73
2021/09/12 10:20:29;;;;;;;11.38;7.75;;;21.00;99.90;;;;;;5036654;28;20552;-72
2021/09/12 10:23:01;;;;;;;13.27;7.68;;;20.90;99.90;;;;;;5037253;28;20114;-73
2021/09/12 10:25:28;;;;;;;13.30;7.30;;;21.00;99.90;;;;;;5039554;28;20431;-73
2021/09/12 10:27:56;;;;;;;11.95;7.20;;;21.00;99.90;;;;;;5041456;28;20112;-74
2021/09/12 10:30:37;;;;;;;9.25;6.50;;;21.00;99.90;;;;;;5040802;28;20108;-76
2021/09/12 10:33:06;;;;;;;12.80;6.45;;;20.90;99.90;;;;;;5038821;28;20484;-76
2021/09/12 10:35:47;;;;;;;9.63;6.95;;;20.90;99.90;;;;;;5039143;28;20044;-75
2021/09/12 10:38:34;;;;;;;11.35;6.32;;;21.00;99.90;;;;;;5038293;28;20120;-74
2021/09/12 10:41:00;;;;;;;9.32;6.47;;;21.00;99.90;;;;;;5038790;28;20043;-75
2021/09/12 10:43:25;;;;;;;12.52;7.40;;;20.90;99.90;;;;;;5038600;28;20028;-75
2021/09/12 10:46:08;;;;;;;10.95;6.18;;;21.00;99.90;;;;;;5039461;28;20037;-76
2021/09/12 10:48:41;;;;;;;9.02;6.13;;;21.10;99.90;;;;;;5039813;28;20016;-76
2021/09/12 10:51:10;;;;;;;7.90;5.32;;;21.20;99.90;;;;;;5038299;28;20045;-75
2021/09/12 10:53:48;;;;;;;7.82;5.43;;;21.30;99.90;;;;;;5036434;28;20028;-76
2021/09/12 10:56:19;;;;;;;7.93;5.90;;;21.50;99.90;;;;;;5038478;28;20040;-75
2021/09/12 10:58:46;;;;;;;;;;;21.70;99.90;;;;;;5040029;28;20082;-74
2021/09/12 11:01:35;;;;;;;9.27;5.22;;;21.70;99.90;;;;;;5039192;28;19916;-75
2021/09/12 11:04:01;;;;;;;7.53;5.32;;;21.80;99.90;;;;;;5039080;28;20061;-75
2021/09/12 11:06:32;;;;;;;7.78;5.40;;;21.70;99.90;;;;;;5039706;28;20032;-75
2021/09/12 11:08:59;;;;;;;7.53;5.00;;;21.70;99.90;;;;;;5038602;28;20032;-76
2021/09/12 11:11:26;;;;;;;7.90;4.72;;;21.60;99.90;;;;;;5038662;28;20036;-76
2021/09/12 11:13:53;;;;;;;8.32;5.45;;;21.60;99.90;;;;;;5037864;28;20568;-75
2021/09/12 11:16:21;;;;;;;8.00;5.25;;;21.50;99.90;;;;;;5038861;28;20120;-73
2021/09/12 11:19:02;;;;;;;9.18;5.50;;;21.60;99.90;;;;;;5042900;28;20130;-73
2021/09/12 11:21:35;;;;;;;5.43;4.07;;;21.80;99.90;;;;;;5039613;28;20028;-72
2021/09/12 11:24:04;;;;;;;6.53;4.75;;;21.80;99.90;;;;;;5041360;28;20214;-72
2021/09/12 11:26:50;;;;;;;7.40;4.32;;;21.90;99.90;;;;;;5041865;28;20033;-72
2021/09/12 11:29:19;;;;;;;9.38;4.60;;;22.00;99.90;;;;;;5034670;28;20043;-71
2021/09/12 11:31:51;;;;;;;7.65;4.18;;;22.00;99.90;;;;;;5046583;28;20075;-72
2021/09/12 11:34:18;;;;;;;6.55;3.97;;;22.20;99.90;;;;;;5048001;28;20029;-71
2021/09/12 11:36:54;;;;;;;5.13;3.90;;;22.60;99.90;;;;;;5039670;28;20539;-72
2021/09/12 11:39:23;;;;;;;4.93;3.75;;;23.20;97.60;;;;;;5049559;28;20098;-72
2021/09/12 11:41:49;;;;;;;6.45;4.13;;;23.70;94.50;;;;;;5047612;28;20407;-72
2021/09/12 11:44:15;;;;;;;5.13;3.92;;;23.90;93.20;;;;;;5039054;28;20029;-71
2021/09/12 11:46:45;;;;;;;5.30;3.20;;;24.10;92.60;;;;;;5040490;28;20391;-71
2021/09/12 11:49:11;;;;;;;6.72;3.65;;;24.10;92.00;;;;;;5036175;28;20113;-72
2021/09/12 11:51:39;;;;;;;4.15;3.35;;;24.30;91.50;;;;;;5039808;28;20820;-72
2021/09/12 11:54:10;;;;;;;5.53;3.70;;;24.50;90.00;;;;;;5042738;28;20017;-72
2021/09/12 11:56:37;;;;;;;5.57;4.03;;;24.30;88.30;;;;;;5040276;28;20150;-71
2021/09/12 11:59:03;;;;;;;7.30;4.05;;;24.00;91.50;;;;;;5040839;28;20506;-72
2021/09/12 12:01:29;;;;;;;4.15;3.13;;;23.70;90.90;;;;;;5033949;28;20029;-72
2021/09/12 12:03:55;;;;;;;5.00;3.78;;;23.50;92.50;;;;;;5037298;28;20033;-71
2021/09/12 12:06:22;;;;;;;4.63;3.60;;;23.40;92.40;;;;;;5035293;28;20054;-72
2021/09/12 12:09:06;;;;;;;8.18;3.70;;;23.30;91.60;;;;;;5039303;28;20025;-72
2021/09/12 12:11:32;;;;;;;4.13;3.35;;;23.20;91.90;;;;;;5035052;28;20032;-72
2021/09/12 12:13:58;;;;;;;4.55;3.72;;;23.10;93.20;;;;;;5039662;28;20033;-71
2021/09/12 12:16:23;;;;;;;5.97;3.33;;;23.00;93.30;;;;;;5038898;28;20107;-72
2021/09/12 12:19:07;;;;;;;4.88;3.80;;;23.00;92.80;;;;;;5039664;28;20106;-71
2021/09/12 12:21:33;;;;;;;4.95;3.67;;;22.90;93.20;;;;;;5038707;28;20038;-71
2021/09/12 12:24:19;;;;;;;6.60;4.10;;;23.00;93.40;;;;;;5039062;28;20074;-72
2021/09/12 12:26:56;;;;;;;4.00;3.15;;;23.30;93.00;;;;;;5042520;28;20484;-72
2021/09/12 12:29:29;;;;;;;3.17;2.63;;;23.90;93.50;;;;;;5035165;28;20056;-70
2021/09/12 12:31:58;;;;;;;4.97;3.50;;;24.00;91.40;;;;;;5039037;28;20586;-72
2021/09/12 12:34:58;;;;;;;4.10;3.50;;;24.00;90.60;;;;;;5040251;28;20033;-71
2021/09/12 12:37:29;;;;;;;4.40;3.17;;;24.00;88.90;;;;;;5038196;28;20052;-71
2021/09/12 12:40:00;;;;;;;4.43;2.80;;;23.90;88.30;;;;;;5033417;28;20167;-72